Time;durP1;ratioP1;P1;durP2;ratioP2;P2;SDS_P1;SDS_P2;PMS_P1;PMS_P2;Temp;Humidity;BMP_temperature;BMP_pressure;BME280_temperature;BME280_humidity;BME280_pressure;Samples;Min_cycle;Max_cycle;Signal;HPM_P1;HPM_P2
2022/12/27 00:02:12;;;;;;;0.40;0.40;;;;;;;;;;4952604;28;20579;-66
2022/12/27 00:04:38;;;;;;;0.17;0.17;;;;;;;;;;4952736;28;20054;-65
2022/12/27 00:07:04;;;;;;;0.45;0.45;;;;;;;;;;4951176;28;20075;-66
2022/12/27 00:09:30;;;;;;;0.63;0.40;;;;;;;;;;4952002;28;20074;-66
2022/12/27 00:11:55;;;;;;;0.43;0.43;;;;;;;;;;4952704;28;20051;-68
2022/12/27 00:14:20;;;;;;;0.50;0.50;;;;;;;;;;4952865;28;20126;-66
2022/12/27 00:16:46;;;;;;;2.85;0.32;;;;;;;;;;4951606;28;20054;-66
2022/12/27 00:19:11;;;;;;;1.75;0.20;;;;;;;;;;4951379;28;20204;-65
2022/12/27 00:21:37;;;;;;;0.30;0.30;;;;;;;;;;4951680;28;20055;-66
2022/12/27 00:24:02;;;;;;;0.77;0.55;;;;;;;;;;4952443;28;20106;-66
2022/12/27 00:26:33;;;;;;;0.30;0.30;;;;;;;;;;4951867;28;20071;-65
2022/12/27 00:28:58;;;;;;;0.60;0.30;;;;;;;;;;4958273;28;20051;-65
2022/12/27 00:31:26;;;;;;;0.30;0.30;;;;;;;;;;4934982;28;20059;-66
2022/12/27 00:33:53;;;;;;;3.67;0.40;;;;;;;;;;4932572;28;20059;-66
2022/12/27 00:36:21;;;;;;;0.30;0.30;;;;;;;;;;4932674;29;20608;-65
2022/12/27 00:38:47;;;;;;;3.28;0.50;;;;;;;;;;4933153;29;20098;-65
2022/12/27 00:41:14;;;;;;;0.52;0.52;;;;;;;;;;4931792;28;20492;-66
2022/12/27 00:43:40;;;;;;;2.75;0.60;;;;;;;;;;4946870;29;20511;-66
2022/12/27 00:46:06;;;;;;;0.50;0.50;;;;;;;;;;4932055;28;20055;-65
2022/12/27 00:48:31;;;;;;;1.10;0.40;;;;;;;;;;4932934;28;20050;-66
2022/12/27 00:50:59;;;;;;;0.57;0.55;;;;;;;;;;4932044;28;20040;-65
2022/12/27 00:53:26;;;;;;;0.40;0.40;;;;;;;;;;4932946;28;20095;-66
2022/12/27 00:55:51;;;;;;;0.57;0.50;;;;;;;;;;4931856;29;20056;-66
2022/12/27 00:58:16;;;;;;;0.50;0.50;;;;;;;;;;4932771;28;20059;-65
2022/12/27 01:00:42;;;;;;;0.32;0.32;;;;;;;;;;4932290;29;20058;-66
2022/12/27 01:03:07;;;;;;;1.23;0.68;;;;;;;;;;4931722;29;20528;-65
2022/12/27 01:05:36;;;;;;;3.08;0.60;;;;;;;;;;4931386;28;20048;-66
2022/12/27 01:08:02;;;;;;;0.98;0.70;;;;;;;;;;4932447;29;20062;-66
2022/12/27 01:10:27;;;;;;;1.60;0.80;;;;;;;;;;4932379;28;20051;-66
2022/12/27 01:12:53;;;;;;;1.15;0.80;;;;;;;;;;4937435;29;20106;-65
2022/12/27 01:15:18;;;;;;;3.03;0.73;;;;;;;;;;4931322;28;20825;-64
2022/12/27 01:17:43;;;;;;;0.50;0.50;;;;;;;;;;4931746;28;20055;-64
2022/12/27 01:20:09;;;;;;;0.80;0.73;;;;;;;;;;4932492;28;20047;-64
2022/12/27 01:22:34;;;;;;;2.33;0.77;;;;;;;;;;4932332;28;20047;-64
2022/12/27 01:25:00;;;;;;;1.38;0.60;;;;;;;;;;4938354;28;20056;-64
2022/12/27 01:27:25;;;;;;;0.52;0.52;;;;;;;;;;4931694;29;20051;-64
2022/12/27 01:29:50;;;;;;;0.50;0.50;;;;;;;;;;4924393;28;20511;-63
2022/12/27 01:32:16;;;;;;;2.35;0.80;;;;;;;;;;4928902;29;20134;-63
2022/12/27 01:34:41;;;;;;;0.65;0.45;;;;;;;;;;4930313;28;20056;-64
2022/12/27 01:37:07;;;;;;;2.15;0.77;;;;;;;;;;4929311;29;20409;-64
2022/12/27 01:39:32;;;;;;;1.35;0.80;;;;;;;;;;4930005;28;20055;-64
2022/12/27 01:44:50;;;;;;;0.30;0.30;;;;;;;;;;4930223;29;20119;-63
2022/12/27 01:47:34;;;;;;;0.98;0.65;;;;;;;;;;4935562;28;20055;-62
2022/12/27 01:50:31;;;;;;;0.60;0.50;;;;;;;;;;4935855;28;20075;-64
2022/12/27 01:53:12;;;;;;;0.88;0.57;;;;;;;;;;4919408;29;20052;-63
2022/12/27 01:55:38;;;;;;;3.77;0.83;;;;;;;;;;4928205;29;20525;-64
2022/12/27 01:58:13;;;;;;;0.75;0.70;;;;;;;;;;4935996;28;20039;-63
2022/12/27 02:00:42;;;;;;;2.17;0.70;;;;;;;;;;4935742;29;20471;-64
2022/12/27 02:03:10;;;;;;;0.80;0.80;;;;;;;;;;4934985;28;20066;-64
2022/12/27 02:05:40;;;;;;;1.60;0.60;;;;;;;;;;4934497;28;20098;-64
2022/12/27 02:08:23;;;;;;;3.08;1.08;;;;;;;;;;4935935;29;20098;-64
2022/12/27 02:10:49;;;;;;;1.77;0.90;;;;;;;;;;4935493;28;20416;-64
2022/12/27 02:13:15;;;;;;;2.25;1.10;;;;;;;;;;4949523;29;20099;-63
2022/12/27 02:15:41;;;;;;;1.20;1.02;;;;;;;;;;4933918;28;20067;-64
2022/12/27 02:18:06;;;;;;;1.92;1.00;;;;;;;;;;4935509;29;20047;-63
2022/12/27 02:21:07;;;;;;;2.28;1.00;;;;;;;;;;4935595;29;20058;-64
2022/12/27 02:24:01;;;;;;;1.58;0.93;;;;;;;;;;4934836;28;20048;-65
2022/12/27 02:26:49;;;;;;;2.70;0.90;;;;;;;;;;4908525;29;20082;-64
2022/12/27 02:29:37;;;;;;;1.33;0.80;;;;;;;;;;4935293;28;20047;-63
2022/12/27 02:32:19;;;;;;;0.88;0.77;;;;;;;;;;4932653;29;20467;-64
2022/12/27 02:35:18;;;;;;;0.98;0.98;;;;;;;;;;4935373;28;20047;-64
2022/12/27 02:37:57;;;;;;;1.77;0.80;;;;;;;;;;4929102;29;20517;-64
2022/12/27 02:55:21;;;;;;;6.05;1.30;;;;;;;;;;4933224;29;20055;-64
2022/12/27 02:57:54;;;;;;;0.90;0.85;;;;;;;;;;4933248;28;20138;-64
2022/12/27 03:03:45;;;;;;;2.83;1.13;;;;;;;;;;4932125;29;20066;-64
2022/12/27 03:06:38;;;;;;;0.82;0.75;;;;;;;;;;4931631;29;20123;-64
2022/12/27 03:15:55;;;;;;;3.83;1.15;;;;;;;;;;4952748;28;20043;-64
2022/12/27 03:18:36;;;;;;;2.08;1.05;;;;;;;;;;4951061;28;20134;-63
2022/12/27 03:26:38;;;;;;;1.88;0.80;;;;;;;;;;4953040;28;20074;-64
2022/12/27 03:35:05;;;;;;;1.17;0.98;;;;;;;;;;4934483;28;20177;-63
2022/12/27 03:43:09;;;;;;;1.90;1.10;;;;;;;;;;4935247;28;20056;-62
2022/12/27 03:43:34;;;;;;;1.05;0.95;;;;;;;;;;4944909;28;20039;-65
2022/12/27 03:46:32;;;;;;;4.22;1.25;;;;;;;;;;4952517;28;20055;-64
2022/12/27 03:49:23;;;;;;;2.35;1.20;;;;;;;;;;4953180;28;20073;-64
2022/12/27 03:51:54;;;;;;;3.35;1.13;;;;;;;;;;4951645;28;20590;-64
2022/12/27 03:54:27;;;;;;;1.13;1.08;;;;;;;;;;4952606;28;20496;-64
2022/12/27 03:56:56;;;;;;;1.50;1.20;;;;;;;;;;4952382;28;20059;-63
2022/12/27 03:59:21;;;;;;;1.50;0.52;;;;;;;;;;4952929;28;20122;-63
2022/12/27 04:01:47;;;;;;;0.88;0.85;;;;;;;;;;4952056;28;20047;-65
2022/12/27 04:04:12;;;;;;;1.27;1.13;;;;;;;;;;4951837;28;20388;-62
2022/12/27 04:06:38;;;;;;;6.45;0.77;;;;;;;;;;4966012;28;20078;-63
2022/12/27 04:36:25;;;;;;;1.63;0.98;;;;;;;;;;4950673;28;20054;-63
2022/12/27 04:38:50;;;;;;;1.10;1.00;;;;;;;;;;4950587;28;20051;-62
2022/12/27 04:55:17;;;;;;;1.23;1.02;;;;;;;;;;4951659;28;20062;-63
2022/12/27 04:57:42;;;;;;;1.83;0.98;;;;;;;;;;4949448;28;20448;-64
2022/12/27 05:02:52;;;;;;;2.33;1.13;;;;;;;;;;4950761;28;20067;-64
2022/12/27 05:05:18;;;;;;;4.28;0.88;;;;;;;;;;4951311;28;20530;-64
2022/12/27 05:15:56;;;;;;;1.92;0.60;;;;;;;;;;4949532;28;20059;-64
2022/12/27 05:18:21;;;;;;;6.78;1.63;;;;;;;;;;4949664;28;20050;-64
2022/12/27 05:20:47;;;;;;;1.15;1.05;;;;;;;;;;4950629;28;20054;-63
2022/12/27 05:25:56;;;;;;;5.15;1.30;;;;;;;;;;4949954;28;20053;-64
2022/12/27 05:28:21;;;;;;;2.03;1.33;;;;;;;;;;4951220;28;20043;-64
2022/12/27 05:30:47;;;;;;;1.10;1.00;;;;;;;;;;4949566;28;20055;-64
2022/12/27 05:33:12;;;;;;;5.68;1.50;;;;;;;;;;4950955;28;20039;-64
2022/12/27 05:35:38;;;;;;;0.60;0.60;;;;;;;;;;4950043;28;20086;-64
2022/12/27 05:38:04;;;;;;;3.97;1.33;;;;;;;;;;4950962;28;20110;-64
2022/12/27 05:40:30;;;;;;;2.08;0.90;;;;;;;;;;4950174;28;20094;-63
2022/12/27 05:43:00;;;;;;;8.07;1.20;;;;;;;;;;4950563;28;20050;-64
2022/12/27 05:45:26;;;;;;;0.77;0.65;;;;;;;;;;4950559;28;20043;-63
2022/12/27 05:47:52;;;;;;;0.65;0.65;;;;;;;;;;4949750;28;20543;-64
2022/12/27 05:50:18;;;;;;;2.33;1.33;;;;;;;;;;4951063;28;20138;-64
2022/12/27 05:52:48;;;;;;;1.70;1.10;;;;;;;;;;4950101;28;20118;-63
2022/12/27 05:55:13;;;;;;;4.38;1.17;;;;;;;;;;4941328;28;20051;-64
2022/12/27 05:57:39;;;;;;;3.25;1.10;;;;;;;;;;4949614;28;20504;-64
2022/12/27 06:00:05;;;;;;;2.45;1.02;;;;;;;;;;4949441;28;20047;-64
2022/12/27 06:02:38;;;;;;;1.77;0.63;;;;;;;;;;4950392;28;20081;-64
2022/12/27 06:05:04;;;;;;;2.25;1.10;;;;;;;;;;4950528;28;20146;-63
2022/12/27 06:07:30;;;;;;;5.78;0.80;;;;;;;;;;4950441;28;20052;-64
2022/12/27 06:09:55;;;;;;;4.20;0.55;;;;;;;;;;4950880;28;20047;-63
2022/12/27 06:12:20;;;;;;;5.85;0.77;;;;;;;;;;4950647;28;20575;-63
2022/12/27 06:14:46;;;;;;;1.60;1.20;;;;;;;;;;4949755;28;20538;-64
2022/12/27 06:17:11;;;;;;;2.17;0.88;;;;;;;;;;4949704;28;20051;-63
2022/12/27 06:19:37;;;;;;;1.70;0.80;;;;;;;;;;4944281;28;20063;-63
2022/12/27 06:22:04;;;;;;;2.58;0.60;;;;;;;;;;4938697;28;20051;-63
2022/12/27 06:24:29;;;;;;;0.63;0.63;;;;;;;;;;4955428;28;20066;-64
2022/12/27 06:26:54;;;;;;;3.70;0.98;;;;;;;;;;4941133;28;20050;-67
2022/12/27 06:29:20;;;;;;;1.20;0.80;;;;;;;;;;4945456;28;20134;-65
2022/12/27 06:31:45;;;;;;;0.70;0.70;;;;;;;;;;4944390;28;20058;-64
2022/12/27 06:34:11;;;;;;;2.15;0.93;;;;;;;;;;4940940;28;20500;-65
2022/12/27 06:36:36;;;;;;;1.25;0.82;;;;;;;;;;4946044;28;20048;-65
2022/12/27 06:39:02;;;;;;;3.05;1.13;;;;;;;;;;4944861;28;20131;-66
2022/12/27 06:41:27;;;;;;;1.13;0.80;;;;;;;;;;4944987;28;20495;-64
2022/12/27 06:43:54;;;;;;;0.90;0.88;;;;;;;;;;4941383;28;20079;-67
2022/12/27 06:46:23;;;;;;;1.13;0.90;;;;;;;;;;4944314;28;20039;-67
2022/12/27 06:48:48;;;;;;;1.65;0.90;;;;;;;;;;4946515;28;20047;-67
2022/12/27 06:51:16;;;;;;;3.85;1.00;;;;;;;;;;4943815;28;20102;-67
2022/12/27 06:53:44;;;;;;;5.03;1.20;;;;;;;;;;4943327;28;20412;-67
2022/12/27 06:56:16;;;;;;;2.35;1.20;;;;;;;;;;4940445;28;20878;-66
2022/12/27 06:58:41;;;;;;;1.10;1.10;;;;;;;;;;4947444;28;20043;-66
2022/12/27 07:01:15;;;;;;;3.92;1.30;;;;;;;;;;4946856;28;20035;-66
2022/12/27 07:03:41;;;;;;;4.60;1.00;;;;;;;;;;4940746;28;20078;-66
2022/12/27 07:06:08;;;;;;;0.90;0.90;;;;;;;;;;4948179;28;20090;-66
2022/12/27 07:08:35;;;;;;;0.80;0.80;;;;;;;;;;4937099;28;20389;-66
2022/12/27 07:11:09;;;;;;;1.05;0.95;;;;;;;;;;4952133;28;20051;-68
2022/12/27 07:13:38;;;;;;;1.02;1.00;;;;;;;;;;4939988;28;20043;-68
2022/12/27 07:16:05;;;;;;;1.13;1.00;;;;;;;;;;4951751;28;20059;-68
2022/12/27 07:18:31;;;;;;;2.78;1.25;;;;;;;;;;4952241;28;20043;-68
2022/12/27 07:20:57;;;;;;;2.25;1.50;;;;;;;;;;4943868;28;20047;-69
2022/12/27 07:23:22;;;;;;;3.30;1.15;;;;;;;;;;4952216;28;20117;-68
2022/12/27 07:25:48;;;;;;;1.20;1.00;;;;;;;;;;4964890;28;20130;-68
2022/12/27 07:28:13;;;;;;;1.88;1.42;;;;;;;;;;4950784;28;20146;-71
2022/12/27 07:30:40;;;;;;;2.78;1.83;;;;;;;;;;4951173;28;20423;-68
2022/12/27 07:33:06;;;;;;;3.50;1.27;;;;;;;;;;4951979;28;20051;-68
2022/12/27 07:35:31;;;;;;;1.42;1.20;;;;;;;;;;4951728;28;20047;-69
2022/12/27 07:37:57;;;;;;;3.75;1.10;;;;;;;;;;4951070;28;20055;-66
2022/12/27 07:40:22;;;;;;;1.25;1.15;;;;;;;;;;4949421;28;20051;-66
2022/12/27 07:42:48;;;;;;;1.35;1.05;;;;;;;;;;4950344;28;20157;-67
2022/12/27 07:45:13;;;;;;;6.85;1.60;;;;;;;;;;4948778;28;20162;-68
2022/12/27 07:47:38;;;;;;;1.08;0.95;;;;;;;;;;4949985;28;20055;-68
2022/12/27 07:50:04;;;;;;;2.22;1.10;;;;;;;;;;4950336;28;20102;-68
2022/12/27 07:52:30;;;;;;;2.88;1.38;;;;;;;;;;4950233;28;20400;-68
2022/12/27 07:54:55;;;;;;;4.53;1.20;;;;;;;;;;4945575;28;20516;-68
2022/12/27 07:57:21;;;;;;;5.85;1.67;;;;;;;;;;4941679;28;20051;-68
2022/12/27 07:59:47;;;;;;;2.58;1.65;;;;;;;;;;4911928;28;20052;-69
2022/12/27 08:02:12;;;;;;;2.50;1.40;;;;;;;;;;4929419;29;20036;-69
2022/12/27 08:04:38;;;;;;;1.50;1.17;;;;;;;;;;4932102;29;20063;-68
2022/12/27 08:07:24;;;;;;;1.73;1.20;;;;;;;;;;4920295;28;20071;-67
2022/12/27 08:09:49;;;;;;;4.15;1.30;;;;;;;;;;4944497;28;20055;-67
2022/12/27 08:12:15;;;;;;;2.90;1.10;;;;;;;;;;4930233;28;20051;-67
2022/12/27 08:14:41;;;;;;;1.92;0.98;;;;;;;;;;4924841;29;20063;-67
2022/12/27 08:17:19;;;;;;;4.32;0.90;;;;;;;;;;4913935;29;20052;-69
2022/12/27 08:19:45;;;;;;;1.80;0.93;;;;;;;;;;4934770;29;20068;-71
2022/12/27 08:22:11;;;;;;;0.95;0.82;;;;;;;;;;4924662;28;20062;-69
2022/12/27 08:24:37;;;;;;;1.70;1.27;;;;;;;;;;4919501;28;20051;-69
2022/12/27 08:27:03;;;;;;;2.15;1.10;;;;;;;;;;4926616;28;20151;-69
2022/12/27 08:29:28;;;;;;;1.85;0.75;;;;;;;;;;4930328;29;20062;-69
2022/12/27 08:31:54;;;;;;;5.63;1.00;;;;;;;;;;4924740;28;20044;-69
2022/12/27 08:34:19;;;;;;;1.65;1.08;;;;;;;;;;4930186;28;20087;-69
2022/12/27 08:36:49;;;;;;;1.38;1.00;;;;;;;;;;4929037;29;20086;-69
2022/12/27 08:39:15;;;;;;;1.40;1.20;;;;;;;;;;4930773;28;20052;-68
2022/12/27 08:41:40;;;;;;;1.20;0.90;;;;;;;;;;4929519;28;20095;-67
2022/12/27 08:44:06;;;;;;;1.50;1.15;;;;;;;;;;4931052;28;20048;-69
2022/12/27 08:46:31;;;;;;;1.00;0.95;;;;;;;;;;4936575;28;20103;-69
2022/12/27 08:48:57;;;;;;;2.90;1.40;;;;;;;;;;4930336;28;20055;-68
2022/12/27 08:51:22;;;;;;;1.40;1.30;;;;;;;;;;4929236;29;20047;-68
2022/12/27 08:53:49;;;;;;;2.95;1.50;;;;;;;;;;4944386;28;20050;-70
2022/12/27 08:56:14;;;;;;;3.38;1.80;;;;;;;;;;4949452;28;20047;-68
2022/12/27 08:58:39;;;;;;;1.63;1.50;;;;;;;;;;4934335;28;20154;-69
2022/12/27 09:01:06;;;;;;;3.90;1.90;;;;;;;;;;4922158;29;20079;-68
2022/12/27 09:03:32;;;;;;;3.00;2.00;;;;;;;;;;4919521;28;20139;-75
2022/12/27 09:06:16;;;;;;;1.88;1.33;;;;;;;;;;4918593;29;20179;-69
2022/12/27 09:08:43;;;;;;;1.48;1.17;;;;;;;;;;4922941;28;20489;-70
2022/12/27 09:11:12;;;;;;;3.42;1.60;;;;;;;;;;4922532;28;20040;-70
2022/12/27 09:13:38;;;;;;;3.70;1.70;;;;;;;;;;4928433;29;20143;-70
2022/12/27 09:16:12;;;;;;;2.28;1.50;;;;;;;;;;4927392;29;20135;-71
2022/12/27 09:18:42;;;;;;;2.25;1.60;;;;;;;;;;4930543;28;20527;-70
2022/12/27 09:21:13;;;;;;;1.90;1.45;;;;;;;;;;4926813;28;20574;-68
2022/12/27 09:23:39;;;;;;;2.70;1.40;;;;;;;;;;4929005;29;20055;-69
2022/12/27 09:26:06;;;;;;;2.42;1.23;;;;;;;;;;4929215;28;20153;-69
2022/12/27 09:28:32;;;;;;;1.52;1.10;;;;;;;;;;4930177;28;20657;-69
2022/12/27 09:30:57;;;;;;;2.97;1.52;;;;;;;;;;4927885;28;20116;-68
2022/12/27 09:33:23;;;;;;;4.47;1.50;;;;;;;;;;4930142;29;20087;-69
2022/12/27 09:35:48;;;;;;;1.55;1.00;;;;;;;;;;4918386;28;20052;-69
2022/12/27 09:38:14;;;;;;;1.70;1.17;;;;;;;;;;4932693;29;20044;-69
2022/12/27 09:40:50;;;;;;;5.65;1.45;;;;;;;;;;4916490;29;20058;-69
2022/12/27 09:43:19;;;;;;;1.67;1.30;;;;;;;;;;4922719;29;20044;-69
2022/12/27 09:45:51;;;;;;;2.55;1.70;;;;;;;;;;4923053;28;20044;-69
2022/12/27 09:48:33;;;;;;;2.03;1.70;;;;;;;;;;4922577;29;20072;-68
2022/12/27 09:51:22;;;;;;;2.25;1.13;;;;;;;;;;4938259;28;20630;-68
2022/12/27 09:54:24;;;;;;;1.92;1.25;;;;;;;;;;4934103;28;20079;-70
2022/12/27 09:56:51;;;;;;;3.75;1.85;;;;;;;;;;4922741;29;20048;-70
2022/12/27 09:59:34;;;;;;;2.67;1.58;;;;;;;;;;4931167;28;20047;-70
2022/12/27 10:02:00;;;;;;;1.67;1.33;;;;;;;;;;4930288;28;20051;-71
2022/12/27 10:04:28;;;;;;;1.23;1.13;;;;;;;;;;4932543;28;20051;-71
2022/12/27 10:07:06;;;;;;;2.70;1.40;;;;;;;;;;4933587;29;20429;-70
2022/12/27 10:09:41;;;;;;;2.30;1.65;;;;;;;;;;4935144;29;20416;-70
2022/12/27 10:12:19;;;;;;;2.97;1.42;;;;;;;;;;4931751;29;20056;-69
2022/12/27 10:14:59;;;;;;;1.40;1.30;;;;;;;;;;4934312;28;20497;-71
2022/12/27 10:17:53;;;;;;;3.78;1.75;;;;;;;;;;4933213;29;20509;-69
2022/12/27 10:20:26;;;;;;;3.80;1.13;;;;;;;;;;4918571;29;20059;-72
2022/12/27 10:22:55;;;;;;;2.03;1.10;;;;;;;;;;4934314;29;20504;-70
2022/12/27 10:25:23;;;;;;;1.98;0.90;;;;;;;;;;4932520;28;20039;-70
2022/12/27 10:27:54;;;;;;;1.50;1.40;;;;;;;;;;4926350;29;20040;-70
2022/12/27 10:30:21;;;;;;;1.42;1.00;;;;;;;;;;4932235;29;20048;-70
2022/12/27 10:32:47;;;;;;;0.90;0.90;;;;;;;;;;4931469;29;20051;-70
2022/12/27 10:35:18;;;;;;;1.27;1.00;;;;;;;;;;4931049;28;20047;-69
2022/12/27 10:37:45;;;;;;;2.17;1.25;;;;;;;;;;4930956;29;20063;-68
2022/12/27 10:40:20;;;;;;;2.17;1.05;;;;;;;;;;4930886;29;20052;-68
2022/12/27 10:43:17;;;;;;;1.00;0.88;;;;;;;;;;4948809;29;20047;-69
2022/12/27 10:45:42;;;;;;;4.43;1.10;;;;;;;;;;4930869;28;20074;-69
2022/12/27 10:48:17;;;;;;;1.55;0.90;;;;;;;;;;4931112;28;20098;-68
2022/12/27 10:50:48;;;;;;;4.00;0.90;;;;;;;;;;4948061;28;20039;-69
2022/12/27 10:53:37;;;;;;;2.67;1.30;;;;;;;;;;4934469;29;20146;-67
2022/12/27 10:56:19;;;;;;;2.67;0.90;;;;;;;;;;4951878;28;20051;-69
2022/12/27 10:58:47;;;;;;;0.98;0.90;;;;;;;;;;4951951;28;20098;-68
2022/12/27 11:01:16;;;;;;;2.17;1.08;;;;;;;;;;4951896;28;20160;-67
2022/12/27 11:03:42;;;;;;;1.42;0.88;;;;;;;;;;4948569;28;20043;-68
2022/12/27 11:06:21;;;;;;;1.90;0.95;;;;;;;;;;4951545;28;20333;-68
2022/12/27 11:08:46;;;;;;;0.93;0.60;;;;;;;;;;4948455;28;20047;-68
2022/12/27 11:11:13;;;;;;;1.48;0.70;;;;;;;;;;4950922;28;20035;-68
2022/12/27 11:13:38;;;;;;;0.38;0.38;;;;;;;;;;4967352;28;20051;-68
2022/12/27 11:16:04;;;;;;;0.70;0.70;;;;;;;;;;4952626;28;20439;-68
2022/12/27 11:18:35;;;;;;;1.88;0.70;;;;;;;;;;4952220;28;20110;-68
2022/12/27 11:21:01;;;;;;;1.85;0.55;;;;;;;;;;4951589;28;20066;-68
2022/12/27 11:23:35;;;;;;;0.40;0.40;;;;;;;;;;4952272;28;20047;-68
2022/12/27 11:26:03;;;;;;;0.50;0.50;;;;;;;;;;4953022;28;20059;-69
2022/12/27 11:28:37;;;;;;;0.52;0.52;;;;;;;;;;4952536;28;20420;-68
2022/12/27 11:31:13;;;;;;;1.48;0.77;;;;;;;;;;4947519;28;20113;-67
2022/12/27 11:33:41;;;;;;;0.63;0.50;;;;;;;;;;4945519;28;20098;-68
2022/12/27 11:36:09;;;;;;;2.55;0.55;;;;;;;;;;4952945;28;20047;-67
2022/12/27 11:38:36;;;;;;;2.30;0.65;;;;;;;;;;4952345;28;20047;-67
2022/12/27 11:41:16;;;;;;;0.80;0.57;;;;;;;;;;4952227;28;20133;-67
2022/12/27 11:43:54;;;;;;;0.55;0.55;;;;;;;;;;4950298;28;20532;-68
2022/12/27 11:46:29;;;;;;;0.45;0.45;;;;;;;;;;4952032;28;20047;-67
2022/12/27 11:48:57;;;;;;;1.10;0.68;;;;;;;;;;4951742;28;20100;-67
2022/12/27 11:51:44;;;;;;;1.02;0.85;;;;;;;;;;4951604;28;20055;-67
2022/12/27 11:54:21;;;;;;;0.88;0.88;;;;;;;;;;4972237;28;20583;-68
2022/12/27 11:56:54;;;;;;;2.35;0.88;;;;;;;;;;4951764;28;20506;-67
2022/12/27 11:59:58;;;;;;;0.70;0.60;;;;;;;;;;4951371;28;20043;-66
2022/12/27 12:03:00;;;;;;;5.60;0.40;;;;;;;;;;4962826;28;20047;-66
2022/12/27 12:05:46;;;;;;;0.52;0.50;;;;;;;;;;4898258;29;20111;-66
2022/12/27 12:08:27;;;;;;;0.32;0.32;;;;;;;;;;4945125;28;20449;-66
2022/12/27 12:11:22;;;;;;;1.98;0.40;;;;;;;;;;4932105;28;20052;-67
2022/12/27 12:14:09;;;;;;;0.40;0.40;;;;;;;;;;4932844;28;20052;-67
2022/12/27 12:16:55;;;;;;;0.50;0.50;;;;;;;;;;4931404;28;20510;-66
2022/12/27 12:19:41;;;;;;;1.30;0.45;;;;;;;;;;4933041;28;20401;-66
2022/12/27 12:22:29;;;;;;;1.50;0.50;;;;;;;;;;4931306;28;20065;-67
2022/12/27 12:25:32;;;;;;;0.40;0.40;;;;;;;;;;4933049;28;20055;-67
2022/12/27 12:28:25;;;;;;;2.20;0.80;;;;;;;;;;4927497;28;20055;-66
2022/12/27 12:31:18;;;;;;;0.70;0.60;;;;;;;;;;4927398;28;20055;-66
2022/12/27 12:33:55;;;;;;;2.08;0.75;;;;;;;;;;4922349;28;20062;-66
2022/12/27 12:36:40;;;;;;;0.90;0.68;;;;;;;;;;4927602;28;20102;-66
2022/12/27 12:39:08;;;;;;;1.20;0.68;;;;;;;;;;4928282;28;20058;-67
2022/12/27 12:41:52;;;;;;;1.13;0.70;;;;;;;;;;4921326;28;20481;-73
2022/12/27 12:44:35;;;;;;;4.35;1.08;;;;;;;;;;4915978;28;20052;-67
2022/12/27 12:47:30;;;;;;;1.30;0.75;;;;;;;;;;4921175;28;20765;-68
2022/12/27 12:50:04;;;;;;;0.50;0.50;;;;;;;;;;4922809;28;20052;-68
2022/12/27 12:52:51;;;;;;;1.58;0.60;;;;;;;;;;4928581;28;20134;-67
2022/12/27 12:55:20;;;;;;;2.00;0.80;;;;;;;;;;4929150;28;20544;-67
2022/12/27 12:58:14;;;;;;;4.80;0.75;;;;;;;;;;4929654;28;20052;-67
2022/12/27 13:00:58;;;;;;;2.17;0.70;;;;;;;;;;4917847;28;20142;-67
2022/12/27 13:03:56;;;;;;;2.03;1.10;;;;;;;;;;4939681;28;20047;-67
2022/12/27 13:06:40;;;;;;;1.10;0.70;;;;;;;;;;4922831;29;20123;-67
2022/12/27 13:09:22;;;;;;;1.05;0.70;;;;;;;;;;4928921;28;20103;-67
2022/12/27 13:12:06;;;;;;;2.28;0.60;;;;;;;;;;4928471;28;20051;-67
2022/12/27 13:15:16;;;;;;;0.40;0.40;;;;;;;;;;4940497;28;20047;-68
2022/12/27 13:18:11;;;;;;;1.05;0.50;;;;;;;;;;4907330;29;20059;-68
2022/12/27 13:20:48;;;;;;;0.90;0.70;;;;;;;;;;4920358;28;20564;-66
2022/12/27 13:23:40;;;;;;;1.10;0.93;;;;;;;;;;4928162;28;20062;-66
2022/12/27 13:26:42;;;;;;;2.08;0.93;;;;;;;;;;4937952;28;20115;-67
2022/12/27 13:29:20;;;;;;;;;;;;;;;;;;4930986;28;20051;-68
2022/12/27 13:32:07;;;;;;;1.85;0.90;;;;;;;;;;4923031;28;20014;-67
2022/12/27 13:34:48;;;;;;;0.75;0.73;;;;;;;;;;4923142;28;20468;-68
2022/12/27 13:37:35;;;;;;;1.80;1.00;;;;;;;;;;4927780;28;20585;-68
2022/12/27 13:40:27;;;;;;;4.15;1.17;;;;;;;;;;4923965;28;20186;-67
2022/12/27 13:43:22;;;;;;;3.42;1.27;;;;;;;;;;4924321;28;20059;-67
2022/12/27 13:45:56;;;;;;;2.72;1.10;;;;;;;;;;4926683;28;20134;-67
2022/12/27 13:48:55;;;;;;;4.57;0.80;;;;;;;;;;4932766;28;20062;-68
2022/12/27 13:51:34;;;;;;;4.03;0.90;;;;;;;;;;4922241;28;20067;-69
2022/12/27 13:54:47;;;;;;;2.20;1.00;;;;;;;;;;4916120;28;20560;-65
2022/12/27 13:57:31;;;;;;;1.80;0.50;;;;;;;;;;4931648;28;20058;-66
2022/12/27 14:00:03;;;;;;;2.22;1.10;;;;;;;;;;4935006;28;20055;-65
2022/12/27 14:02:53;;;;;;;1.02;0.93;;;;;;;;;;4915711;28;20048;-64
2022/12/27 14:05:40;;;;;;;1.05;0.80;;;;;;;;;;4917807;28;20040;-65
2022/12/27 14:08:43;;;;;;;1.83;0.70;;;;;;;;;;4934222;28;20043;-66
2022/12/27 14:11:20;;;;;;;1.08;0.85;;;;;;;;;;4916178;28;20059;-66
2022/12/27 14:13:47;;;;;;;1.20;0.77;;;;;;;;;;4918855;28;20044;-66
2022/12/27 14:16:40;;;;;;;2.15;0.80;;;;;;;;;;4934365;28;20097;-65
2022/12/27 14:19:15;;;;;;;2.35;0.75;;;;;;;;;;4933230;28;20062;-65
2022/12/27 14:21:52;;;;;;;1.88;0.80;;;;;;;;;;4914032;28;20102;-65
2022/12/27 14:24:24;;;;;;;1.42;0.82;;;;;;;;;;4914864;28;20063;-65
2022/12/27 14:27:17;;;;;;;3.60;0.98;;;;;;;;;;4913468;29;20107;-64
2022/12/27 14:30:17;;;;;;;2.45;0.80;;;;;;;;;;4926657;28;20081;-64
2022/12/27 14:32:54;;;;;;;6.88;0.88;;;;;;;;;;4915131;28;20059;-64
2022/12/27 14:35:20;;;;;;;1.27;0.77;;;;;;;;;;4916298;28;20493;-63
2022/12/27 14:38:07;;;;;;;2.35;0.90;;;;;;;;;;4914973;28;20059;-66
2022/12/27 14:40:54;;;;;;;1.40;0.90;;;;;;;;;;4933822;28;20044;-64
2022/12/27 14:43:25;;;;;;;2.85;1.60;;;;;;;;;;4934727;28;20035;-64
2022/12/27 14:45:56;;;;;;;1.23;1.13;;;;;;;;;;4934174;28;20055;-64
2022/12/27 14:48:49;;;;;;;3.73;0.90;;;;;;;;;;4934176;28;20062;-64
2022/12/27 14:51:36;;;;;;;1.75;1.00;;;;;;;;;;4940081;28;20106;-64
2022/12/27 14:54:11;;;;;;;1.27;0.90;;;;;;;;;;4934204;28;20462;-64
2022/12/27 14:56:55;;;;;;;1.75;0.93;;;;;;;;;;4933915;28;20056;-64
2022/12/27 14:59:43;;;;;;;1.25;0.80;;;;;;;;;;4933641;28;20112;-63
2022/12/27 15:02:15;;;;;;;4.00;0.93;;;;;;;;;;4945921;28;20602;-63
2022/12/27 15:04:55;;;;;;;1.02;0.80;;;;;;;;;;4934148;28;20059;-63
2022/12/27 15:07:27;;;;;;;3.33;0.90;;;;;;;;;;4933631;28;20050;-63
2022/12/27 15:10:11;;;;;;;1.75;0.90;;;;;;;;;;4916870;28;20420;-66
2022/12/27 15:12:47;;;;;;;2.30;1.10;;;;;;;;;;4917868;28;20485;-65
2022/12/27 15:15:19;;;;;;;1.83;1.10;;;;;;;;;;4929826;28;20420;-64
2022/12/27 15:18:08;;;;;;;3.15;1.40;;;;;;;;;;4931249;28;20043;-66
2022/12/27 15:20:41;;;;;;;2.30;1.30;;;;;;;;;;4931500;28;20055;-65
2022/12/27 15:23:34;;;;;;;2.30;1.00;;;;;;;;;;4930221;28;20106;-65
2022/12/27 15:26:13;;;;;;;1.27;0.88;;;;;;;;;;4927724;28;20465;-68
2022/12/27 15:29:05;;;;;;;2.17;1.10;;;;;;;;;;4930579;28;20051;-63
2022/12/27 15:31:58;;;;;;;2.40;1.30;;;;;;;;;;4930812;28;20791;-65
2022/12/27 15:34:48;;;;;;;3.08;1.33;;;;;;;;;;4941758;28;20154;-64
2022/12/27 15:37:51;;;;;;;2.53;1.58;;;;;;;;;;4931796;28;20079;-63
2022/12/27 15:40:43;;;;;;;3.15;1.55;;;;;;;;;;4943000;28;20044;-65
2022/12/27 15:43:08;;;;;;;5.45;1.90;;;;;;;;;;4930580;28;20139;-63
2022/12/27 15:45:55;;;;;;;4.88;3.10;;;;;;;;;;4921595;28;20138;-64
2022/12/27 15:49:16;;;;;;;8.15;3.60;;;;;;;;;;4941824;28;20058;-64
2022/12/27 15:51:57;;;;;;;7.95;4.38;;;;;;;;;;4888446;28;20126;-64
2022/12/27 15:54:55;;;;;;;9.02;4.55;;;;;;;;;;4932504;28;20079;-65
2022/12/27 15:57:35;;;;;;;40.05;20.58;;;;;;;;;;4922031;28;20118;-67
2022/12/27 16:00:27;;;;;;;29.67;15.77;;;;;;;;;;4930355;28;20103;-65
2022/12/27 16:02:56;;;;;;;31.52;15.93;;;;;;;;;;4912295;28;20059;-65
2022/12/27 16:05:21;;;;;;;20.05;10.13;;;;;;;;;;4912397;28;20059;-65
2022/12/27 16:07:58;;;;;;;18.23;10.15;;;;;;;;;;4924156;28;20052;-65
2022/12/27 16:10:34;;;;;;;20.80;9.10;;;;;;;;;;4930910;28;20134;-65
2022/12/27 16:13:09;;;;;;;27.27;11.30;;;;;;;;;;4941151;29;20809;-64
2022/12/27 16:15:43;;;;;;;17.70;9.45;;;;;;;;;;4949566;28;20055;-65
2022/12/27 16:18:15;;;;;;;12.65;8.25;;;;;;;;;;4940576;28;20055;-65
2022/12/27 16:20:53;;;;;;;13.02;8.85;;;;;;;;;;4952292;28;20095;-64
2022/12/27 16:23:25;;;;;;;17.48;10.23;;;;;;;;;;4941019;28;20043;-65
2022/12/27 16:26:18;;;;;;;;;;;;;;;;;;4940299;28;20043;-64
2022/12/27 16:29:14;;;;;;;30.05;16.83;;;;;;;;;;4942198;28;20343;-64
2022/12/27 16:31:47;;;;;;;51.30;27.08;;;;;;;;;;4914615;28;20057;-65
2022/12/27 16:34:33;;;;;;;51.72;29.42;;;;;;;;;;4943850;28;20063;-64
2022/12/27 16:36:59;;;;;;;48.92;25.95;;;;;;;;;;4940355;28;20102;-65
2022/12/27 16:39:52;;;;;;;44.28;23.95;;;;;;;;;;4941263;28;20082;-64
2022/12/27 16:42:27;;;;;;;23.00;14.32;;;;;;;;;;4904201;29;20059;-64
2022/12/27 16:45:01;;;;;;;11.18;7.32;;;;;;;;;;4922097;29;20048;-64
2022/12/27 16:47:39;;;;;;;10.43;5.75;;;;;;;;;;4922222;28;20056;-64
2022/12/27 16:50:13;;;;;;;11.18;6.03;;;;;;;;;;4941774;28;20480;-64
2022/12/27 16:52:59;;;;;;;12.60;7.53;;;;;;;;;;4942146;28;20051;-64
2022/12/27 16:55:53;;;;;;;15.50;8.73;;;;;;;;;;4941885;28;20053;-64
2022/12/27 16:58:30;;;;;;;17.33;8.77;;;;;;;;;;4953316;28;20058;-64
2022/12/27 17:00:59;;;;;;;20.02;11.95;;;;;;;;;;4942192;28;20143;-64
2022/12/27 17:03:31;;;;;;;16.08;9.38;;;;;;;;;;4938705;28;20051;-64